Time;durP1;ratioP1;P1;durP2;ratioP2;P2;SDS_P1;SDS_P2;PMS_P1;PMS_P2;Temp;Humidity;BMP_temperature;BMP_pressure;BME280_temperature;BME280_humidity;BME280_pressure;Samples;Min_cycle;Max_cycle;Signal;HPM_P1;HPM_P2
2022/05/05 00:00:53;;;;;;;4.57;4.18;;;20.40;43.60;;;;;;5074430;28;20059;-60
2022/05/05 00:03:20;;;;;;;3.92;3.63;;;20.30;43.60;;;;;;5074293;28;20024;-59
2022/05/05 00:05:46;;;;;;;5.32;4.65;;;20.30;43.60;;;;;;5073688;28;20017;-59
2022/05/05 00:08:12;;;;;;;6.25;4.57;;;20.30;43.70;;;;;;5073857;28;20028;-59
2022/05/05 00:16:07;;;;;;;4.53;4.03;;;20.30;43.70;;;;;;5075051;28;20031;-59
2022/05/05 00:18:34;;;;;;;4.93;4.22;;;20.30;43.70;;;;;;5075862;28;20017;-60
2022/05/05 00:21:00;;;;;;;4.55;4.15;;;20.30;43.70;;;;;;5073215;28;20075;-59
2022/05/05 00:23:26;;;;;;;5.55;4.53;;;20.30;43.70;;;;;;5056318;28;20028;-59
2022/05/05 00:25:53;;;;;;;5.32;4.43;;;20.30;43.70;;;;;;5074324;28;20017;-59
2022/05/05 00:28:19;;;;;;;4.95;4.40;;;20.30;43.70;;;;;;5074231;28;20020;-58
2022/05/05 00:30:45;;;;;;;7.80;4.20;;;20.30;43.70;;;;;;5074347;28;20497;-60
2022/05/05 00:33:11;;;;;;;4.95;3.92;;;20.30;43.70;;;;;;5073874;28;20493;-59
2022/05/05 00:35:37;;;;;;;5.10;4.00;;;20.30;43.70;;;;;;5073871;28;20036;-59
2022/05/05 00:38:03;;;;;;;4.30;3.90;;;20.30;43.70;;;;;;5072775;28;20862;-59
2022/05/05 00:40:30;;;;;;;4.28;3.88;;;20.30;43.70;;;;;;5073954;28;20027;-58
2022/05/05 00:42:59;;;;;;;5.40;4.68;;;20.30;43.80;;;;;;5073692;28;20013;-59
2022/05/05 00:45:25;;;;;;;4.78;4.22;;;20.30;43.70;;;;;;5074121;28;20029;-58
2022/05/05 00:47:51;;;;;;;4.20;3.80;;;20.30;43.80;;;;;;5077320;28;20534;-58
2022/05/05 00:50:16;;;;;;;4.13;3.72;;;20.20;43.70;;;;;;5076441;28;20037;-59
2022/05/05 00:52:43;;;;;;;4.80;4.30;;;20.30;43.80;;;;;;5059764;28;20053;-59
2022/05/05 00:55:09;;;;;;;5.00;4.10;;;20.30;43.80;;;;;;5077430;28;20040;-59
2022/05/05 00:57:36;;;;;;;4.22;3.83;;;20.30;43.80;;;;;;5077314;28;20005;-58
2022/05/05 01:00:02;;;;;;;4.63;4.22;;;20.20;43.80;;;;;;5076091;28;20033;-59
2022/05/05 01:02:29;;;;;;;4.68;4.28;;;20.30;43.90;;;;;;5075494;28;20063;-59
2022/05/05 01:04:56;;;;;;;4.43;4.03;;;20.30;43.90;;;;;;5077074;28;20027;-57
2022/05/05 01:07:23;;;;;;;4.97;4.40;;;20.20;43.80;;;;;;5075751;28;20047;-59
2022/05/05 01:09:49;;;;;;;4.47;4.15;;;20.30;44.00;;;;;;5076749;28;20034;-59
2022/05/05 01:12:15;;;;;;;4.63;4.22;;;20.20;43.90;;;;;;5077019;28;20076;-59
2022/05/05 01:14:41;;;;;;;6.32;4.40;;;20.30;43.90;;;;;;5077005;28;20509;-58
2022/05/05 01:17:06;;;;;;;5.32;4.35;;;20.30;43.90;;;;;;5075891;28;20463;-59
2022/05/05 01:19:34;;;;;;;6.50;4.43;;;20.20;43.90;;;;;;5075507;28;20059;-59
2022/05/05 01:22:00;;;;;;;5.35;4.63;;;20.20;43.90;;;;;;5076060;28;20048;-59
2022/05/05 01:29:59;;;;;;;4.40;4.00;;;20.20;43.90;;;;;;5076260;28;20039;-57
2022/05/05 01:32:32;;;;;;;4.53;4.10;;;20.20;43.90;;;;;;5076105;28;20039;-59
2022/05/05 01:34:59;;;;;;;5.47;4.25;;;20.20;44.00;;;;;;5074500;28;20017;-59
2022/05/05 01:37:24;;;;;;;5.15;4.20;;;20.20;44.00;;;;;;5075751;28;20024;-58
2022/05/05 01:39:50;;;;;;;4.95;4.47;;;20.20;43.90;;;;;;5057465;28;20021;-60
2022/05/05 01:42:17;;;;;;;4.97;4.43;;;20.20;44.00;;;;;;5057462;28;20103;-59
2022/05/05 01:44:43;;;;;;;4.35;3.95;;;20.20;44.00;;;;;;5075182;28;20025;-59
2022/05/05 01:47:09;;;;;;;5.07;4.57;;;20.20;44.00;;;;;;5075336;28;20023;-58
2022/05/05 01:49:34;;;;;;;5.10;4.32;;;20.20;44.00;;;;;;5074992;28;20475;-60
2022/05/05 01:52:00;;;;;;;4.55;4.15;;;20.20;44.00;;;;;;5074994;28;20468;-59
2022/05/05 01:54:27;;;;;;;4.43;4.03;;;20.20;44.00;;;;;;5075298;28;20016;-59
2022/05/05 01:56:52;;;;;;;5.93;4.60;;;20.20;44.00;;;;;;5074311;28;20052;-58
2022/05/05 01:59:18;;;;;;;5.40;4.32;;;20.20;44.00;;;;;;5074523;28;20047;-60
2022/05/05 02:01:45;;;;;;;4.82;4.38;;;20.20;44.00;;;;;;5073583;28;20087;-59
2022/05/05 02:04:11;;;;;;;5.57;4.75;;;20.20;44.00;;;;;;5074446;28;20103;-60
2022/05/05 02:06:37;;;;;;;4.68;4.20;;;20.20;44.00;;;;;;5074722;28;20036;-60
2022/05/05 02:09:03;;;;;;;4.75;4.20;;;20.20;44.00;;;;;;5074332;28;20009;-60
2022/05/05 02:11:29;;;;;;;4.85;4.45;;;20.20;44.00;;;;;;5073047;28;20021;-59
2022/05/05 02:13:56;;;;;;;5.00;4.50;;;20.20;44.00;;;;;;5073551;28;20017;-60
2022/05/05 02:16:22;;;;;;;6.35;4.65;;;20.20;44.00;;;;;;5074870;28;20037;-60
2022/05/05 02:18:49;;;;;;;5.50;4.45;;;20.20;44.10;;;;;;5074561;28;20009;-60
2022/05/05 02:21:14;;;;;;;4.60;4.10;;;20.20;44.00;;;;;;5074474;28;20023;-60
2022/05/05 02:23:40;;;;;;;5.22;4.72;;;20.10;44.00;;;;;;5089957;28;20025;-60
2022/05/05 02:26:06;;;;;;;5.22;4.72;;;20.20;44.00;;;;;;5073273;28;20047;-60
2022/05/05 02:28:32;;;;;;;4.82;4.32;;;20.10;44.00;;;;;;5073093;28;20024;-60
2022/05/05 02:31:01;;;;;;;6.03;4.90;;;20.10;44.00;;;;;;5074533;28;20025;-60
2022/05/05 02:33:27;;;;;;;4.55;4.15;;;20.10;44.00;;;;;;5074545;28;20367;-60
2022/05/05 02:38:43;;;;;;;5.10;4.60;;;20.10;44.00;;;;;;5073337;28;20031;-60
2022/05/05 02:41:09;;;;;;;5.35;4.85;;;20.10;44.10;;;;;;5074712;28;20096;-60
2022/05/05 02:43:35;;;;;;;4.68;4.28;;;20.10;44.10;;;;;;5074142;28;20071;-60
2022/05/05 02:46:01;;;;;;;4.70;4.30;;;20.10;44.10;;;;;;5073983;28;20025;-60
2022/05/05 02:48:26;;;;;;;4.85;4.40;;;20.10;44.20;;;;;;5073637;28;20463;-60
2022/05/05 02:50:52;;;;;;;4.65;4.25;;;20.10;44.20;;;;;;5073849;28;20036;-59
2022/05/05 02:56:03;;;;;;;4.90;4.25;;;20.10;44.20;;;;;;5073839;28;20057;-59
2022/05/05 02:58:29;;;;;;;5.70;4.63;;;20.10;44.20;;;;;;5074106;28;20013;-59
2022/05/05 03:00:55;;;;;;;5.13;4.63;;;20.10;44.10;;;;;;5073797;28;20024;-59
2022/05/05 03:03:21;;;;;;;5.28;4.40;;;20.10;44.20;;;;;;5073967;28;20021;-59
2022/05/05 03:05:47;;;;;;;5.10;4.55;;;20.10;44.20;;;;;;5074182;28;20123;-59
2022/05/05 03:08:13;;;;;;;5.15;4.28;;;20.00;44.10;;;;;;5073870;28;20140;-59
2022/05/05 03:10:39;;;;;;;5.72;4.72;;;20.10;44.20;;;;;;5072692;28;20043;-60
2022/05/05 03:13:05;;;;;;;5.93;4.55;;;20.10;44.20;;;;;;5073884;28;20522;-60
2022/05/05 03:15:31;;;;;;;4.50;4.10;;;20.10;44.20;;;;;;5074435;28;20028;-59
2022/05/05 03:17:58;;;;;;;5.80;5.00;;;20.10;44.20;;;;;;5074421;28;20016;-59
2022/05/05 03:20:25;;;;;;;4.30;3.97;;;20.00;44.20;;;;;;5074419;28;20020;-59
2022/05/05 03:22:50;;;;;;;5.40;4.90;;;20.10;44.30;;;;;;5074421;28;20044;-59
2022/05/05 03:25:17;;;;;;;5.18;4.68;;;20.10;44.30;;;;;;5072874;28;20019;-59
2022/05/05 03:27:43;;;;;;;4.93;4.43;;;20.00;44.30;;;;;;5074245;28;20017;-59
2022/05/05 03:30:10;;;;;;;5.38;4.85;;;20.00;44.30;;;;;;5073978;28;20031;-58
2022/05/05 03:32:35;;;;;;;4.95;4.45;;;20.00;44.30;;;;;;5074050;28;20016;-59
2022/05/05 03:35:02;;;;;;;6.68;4.72;;;20.00;44.40;;;;;;5072867;28;20021;-58
2022/05/05 03:37:28;;;;;;;5.30;4.70;;;20.00;44.30;;;;;;5072785;28;20478;-58
2022/05/05 03:39:54;;;;;;;5.07;4.60;;;20.00;44.30;;;;;;5073733;28;20031;-58
2022/05/05 03:42:20;;;;;;;5.30;4.80;;;20.00;44.40;;;;;;5072449;28;20105;-59
2022/05/05 03:44:45;;;;;;;5.90;4.65;;;20.00;44.30;;;;;;5073518;28;20086;-58
2022/05/05 03:47:11;;;;;;;5.30;4.80;;;20.00;44.40;;;;;;5088891;28;20016;-59
2022/05/05 03:49:37;;;;;;;4.95;4.47;;;20.00;44.40;;;;;;5071808;28;20031;-58
2022/05/05 03:52:04;;;;;;;5.65;4.80;;;20.00;44.40;;;;;;5073599;28;20471;-59
2022/05/05 03:54:30;;;;;;;5.30;4.80;;;20.00;44.40;;;;;;5073528;28;20047;-58
2022/05/05 03:56:56;;;;;;;5.32;4.82;;;20.00;44.50;;;;;;5072292;28;20020;-58
2022/05/05 03:59:25;;;;;;;5.82;5.32;;;20.00;45.00;;;;;;5071661;28;20538;-57
2022/05/05 04:01:51;;;;;;;5.45;4.93;;;20.00;45.00;;;;;;5072131;28;20364;-60
2022/05/05 04:04:20;;;;;;;5.85;5.30;;;19.90;44.50;;;;;;5073355;28;20070;-59
2022/05/05 04:06:46;;;;;;;5.68;5.18;;;20.00;44.50;;;;;;5072119;28;20020;-58
2022/05/05 04:09:12;;;;;;;5.53;5.00;;;20.00;44.40;;;;;;5072190;28;20083;-58
2022/05/05 04:11:58;;;;;;;5.82;5.20;;;20.00;44.40;;;;;;5072700;28;20048;-59
2022/05/05 04:14:44;;;;;;;7.63;5.65;;;20.00;44.40;;;;;;5073116;28;20548;-58
2022/05/05 04:17:09;;;;;;;5.68;5.10;;;20.00;44.40;;;;;;5072118;28;20024;-58
2022/05/05 04:19:36;;;;;;;6.45;5.32;;;20.00;44.50;;;;;;5072958;28;20025;-59
2022/05/05 04:22:22;;;;;;;5.88;5.28;;;20.00;44.60;;;;;;5076819;28;20056;-58
2022/05/05 04:24:48;;;;;;;5.82;5.32;;;20.00;44.60;;;;;;5075688;28;20013;-58
2022/05/05 04:27:14;;;;;;;5.20;4.70;;;20.00;44.60;;;;;;5076018;28;20521;-58
2022/05/05 04:29:43;;;;;;;11.10;6.20;;;20.00;44.60;;;;;;5077517;28;20067;-59
2022/05/05 04:32:09;;;;;;;6.00;5.40;;;19.90;44.70;;;;;;5076043;28;20013;-58
2022/05/05 04:34:35;;;;;;;5.80;5.22;;;20.00;44.70;;;;;;5075861;28;20554;-59
2022/05/05 04:37:00;;;;;;;7.50;5.40;;;20.00;45.20;;;;;;5075473;28;20013;-58
2022/05/05 04:39:27;;;;;;;6.00;5.40;;;20.00;44.60;;;;;;5076774;28;20027;-59
2022/05/05 04:41:53;;;;;;;6.38;5.35;;;19.90;44.60;;;;;;5076477;28;20017;-59
2022/05/05 04:44:19;;;;;;;5.97;5.38;;;19.90;44.60;;;;;;5076507;28;20040;-58
2022/05/05 04:46:45;;;;;;;6.22;5.60;;;20.00;44.70;;;;;;5076522;28;20348;-59
2022/05/05 04:49:17;;;;;;;6.53;5.45;;;20.00;44.70;;;;;;5075544;28;20056;-58
2022/05/05 04:51:42;;;;;;;6.03;5.43;;;19.90;44.80;;;;;;5092531;28;20010;-59
2022/05/05 04:54:09;;;;;;;5.78;5.25;;;19.90;44.70;;;;;;5077363;28;20047;-58
2022/05/05 04:56:34;;;;;;;5.97;5.38;;;20.00;44.70;;;;;;5075948;28;20036;-58
2022/05/05 04:59:00;;;;;;;6.80;5.43;;;19.90;44.70;;;;;;5077637;28;20024;-59
2022/05/05 05:01:26;;;;;;;6.72;5.78;;;19.90;44.70;;;;;;5060092;28;20044;-59
2022/05/05 05:03:52;;;;;;;6.10;5.60;;;19.90;44.80;;;;;;5092998;28;20494;-59
2022/05/05 05:06:18;;;;;;;6.95;6.30;;;19.90;44.80;;;;;;5076951;28;20073;-60
2022/05/05 05:08:45;;;;;;;6.25;5.70;;;19.90;44.90;;;;;;5077295;28;20161;-59
2022/05/05 05:11:11;;;;;;;6.30;5.65;;;19.90;44.90;;;;;;5076198;28;20055;-59
2022/05/05 05:13:36;;;;;;;6.18;5.57;;;19.90;44.90;;;;;;5078141;28;20044;-58
2022/05/05 05:16:02;;;;;;;7.03;5.82;;;19.90;44.80;;;;;;5076983;28;20024;-59
2022/05/05 05:18:28;;;;;;;6.28;5.70;;;19.90;44.90;;;;;;5077678;28;20468;-60
2022/05/05 05:20:54;;;;;;;7.50;5.90;;;19.90;45.00;;;;;;5076122;28;20544;-59
2022/05/05 05:23:20;;;;;;;7.70;5.90;;;19.90;45.00;;;;;;5076919;28;20052;-58
2022/05/05 05:25:46;;;;;;;6.43;5.82;;;19.90;45.00;;;;;;5076559;28;20378;-58
2022/05/05 05:28:15;;;;;;;7.35;6.20;;;19.90;45.00;;;;;;5074762;28;20117;-59
2022/05/05 05:30:41;;;;;;;6.63;6.03;;;19.90;45.50;;;;;;5075377;28;20510;-58
2022/05/05 05:33:07;;;;;;;6.00;5.40;;;19.90;45.00;;;;;;5073088;28;20025;-59
2022/05/05 05:35:33;;;;;;;7.00;6.40;;;19.90;45.10;;;;;;5074082;28;20029;-58
2022/05/05 05:37:59;;;;;;;6.95;6.18;;;19.90;45.10;;;;;;5075374;28;20123;-58
2022/05/05 05:40:25;;;;;;;7.45;6.75;;;19.90;45.10;;;;;;5075424;28;20395;-59
2022/05/05 05:42:52;;;;;;;7.65;6.43;;;19.90;45.10;;;;;;5075679;28;20028;-57
2022/05/05 05:45:18;;;;;;;7.50;6.70;;;20.00;45.20;;;;;;5074473;28;20582;-59
2022/05/05 05:47:44;;;;;;;9.98;7.57;;;20.10;45.00;;;;;;5074367;28;20021;-57
2022/05/05 05:50:10;;;;;;;8.15;7.35;;;20.20;45.20;;;;;;5075403;28;20025;-59
2022/05/05 05:52:36;;;;;;;8.10;7.28;;;20.00;45.40;;;;;;5074347;28;20020;-59
2022/05/05 05:55:03;;;;;;;8.23;7.47;;;20.00;45.40;;;;;;5073872;28;20017;-58
2022/05/05 05:57:29;;;;;;;8.13;7.13;;;20.00;45.80;;;;;;5073586;28;20036;-58
2022/05/05 05:59:55;;;;;;;10.18;7.10;;;20.00;45.70;;;;;;5075365;28;20492;-58
2022/05/05 06:05:06;;;;;;;8.65;6.80;;;20.00;45.60;;;;;;5059970;28;20136;-59
2022/05/05 06:07:32;;;;;;;8.23;7.18;;;20.00;45.50;;;;;;5074935;28;20032;-58
2022/05/05 06:09:58;;;;;;;11.77;7.63;;;20.10;45.40;;;;;;5073460;28;20453;-60
2022/05/05 06:12:24;;;;;;;8.52;7.63;;;20.20;45.40;;;;;;5074619;28;20071;-60
2022/05/05 06:14:49;;;;;;;7.43;6.30;;;20.20;45.60;;;;;;5072860;28;20535;-60
2022/05/05 06:17:15;;;;;;;9.95;7.20;;;20.20;45.40;;;;;;5072744;28;20052;-60
2022/05/05 06:19:44;;;;;;;9.63;7.63;;;20.10;45.30;;;;;;5071827;28;20021;-58
2022/05/05 06:22:11;;;;;;;8.48;7.30;;;20.20;45.60;;;;;;5053977;28;20122;-58
2022/05/05 06:24:37;;;;;;;8.20;7.45;;;20.20;45.50;;;;;;5072184;28;20012;-59
2022/05/05 06:27:04;;;;;;;9.45;7.70;;;20.30;45.20;;;;;;5053918;28;20391;-58
2022/05/05 06:29:30;;;;;;;8.50;7.15;;;20.30;45.10;;;;;;5088063;28;20056;-58
2022/05/05 06:31:57;;;;;;;9.30;7.72;;;20.40;45.00;;;;;;5072930;28;20021;-58
2022/05/05 06:34:23;;;;;;;8.32;7.40;;;20.40;45.00;;;;;;5072290;28;20011;-58
2022/05/05 06:36:48;;;;;;;11.45;8.00;;;20.40;45.10;;;;;;5073273;28;20447;-57
2022/05/05 06:39:14;;;;;;;8.45;7.50;;;20.40;45.10;;;;;;5072989;28;20009;-58
2022/05/05 06:41:40;;;;;;;9.40;7.47;;;20.40;45.10;;;;;;5072820;28;20370;-57
2022/05/05 06:44:06;;;;;;;13.45;7.97;;;20.40;44.90;;;;;;5070868;28;20023;-57
2022/05/05 06:46:32;;;;;;;8.48;7.68;;;20.50;45.10;;;;;;5072518;28;20538;-57
2022/05/05 06:48:58;;;;;;;8.85;7.30;;;20.50;44.90;;;;;;5054607;28;20051;-60
2022/05/05 06:51:25;;;;;;;7.82;7.03;;;20.60;44.50;;;;;;5072601;28;20013;-57
2022/05/05 06:53:51;;;;;;;9.70;8.07;;;20.60;44.80;;;;;;5088323;28;20070;-57
2022/05/05 06:56:17;;;;;;;9.70;7.55;;;20.60;44.70;;;;;;5071234;28;20416;-60
2022/05/05 06:58:42;;;;;;;11.20;8.50;;;20.60;44.70;;;;;;5071451;28;20023;-57
2022/05/05 07:05:23;;;;;;;8.60;7.80;;;20.60;45.00;;;;;;5072382;28;20033;-60
2022/05/05 07:06:39;;;;;;;10.57;8.05;;;20.60;45.00;;;;;;5072536;28;20036;-59
2022/05/05 07:11:49;;;;;;;8.98;7.15;;;20.60;44.90;;;;;;5071223;28;20508;-58
2022/05/05 07:14:16;;;;;;;8.73;7.22;;;20.70;44.60;;;;;;5071752;28;20443;-58
2022/05/05 07:16:42;;;;;;;8.73;7.82;;;20.70;44.50;;;;;;5071086;28;20008;-58
2022/05/05 07:19:09;;;;;;;8.38;7.50;;;20.70;44.50;;;;;;5072566;28;20548;-58
2022/05/05 07:21:37;;;;;;;8.98;7.68;;;20.80;44.40;;;;;;5071977;28;20067;-59
2022/05/05 07:24:04;;;;;;;8.73;7.63;;;20.80;44.60;;;;;;5087995;28;20025;-58
2022/05/05 07:26:32;;;;;;;8.85;7.57;;;20.70;44.50;;;;;;5072852;28;20016;-58
2022/05/05 07:28:58;;;;;;;8.88;7.47;;;20.70;44.80;;;;;;5072778;28;20569;-58
2022/05/05 07:31:24;;;;;;;10.20;8.18;;;20.70;44.70;;;;;;5071175;28;20024;-57
2022/05/05 07:33:49;;;;;;;10.25;7.70;;;20.80;45.00;;;;;;5073197;28;20092;-58
2022/05/05 07:36:16;;;;;;;9.50;7.75;;;20.70;44.70;;;;;;5073606;28;20021;-58
2022/05/05 07:38:42;;;;;;;8.77;7.70;;;20.70;44.60;;;;;;5073971;28;20046;-58
2022/05/05 07:41:08;;;;;;;7.45;6.75;;;20.80;44.60;;;;;;5073504;28;20467;-59
2022/05/05 07:43:34;;;;;;;9.15;7.85;;;20.90;44.50;;;;;;5089075;28;20032;-60
2022/05/05 07:46:01;;;;;;;14.63;9.10;;;20.90;44.50;;;;;;5071777;28;20016;-58
2022/05/05 07:48:27;;;;;;;10.93;7.80;;;20.90;44.70;;;;;;5071627;28;20027;-58
2022/05/05 07:50:53;;;;;;;9.73;7.22;;;20.90;44.40;;;;;;5073016;28;20048;-60
2022/05/05 07:53:22;;;;;;;10.25;8.52;;;20.80;44.50;;;;;;5073069;28;20089;-59
2022/05/05 07:55:48;;;;;;;11.05;8.75;;;20.80;44.80;;;;;;5054497;28;20028;-58
2022/05/05 07:58:13;;;;;;;11.10;8.18;;;20.90;44.70;;;;;;5071863;28;20024;-58
2022/05/05 08:00:39;;;;;;;9.88;8.07;;;20.90;44.70;;;;;;5071108;28;20497;-58
2022/05/05 08:03:05;;;;;;;10.57;8.20;;;20.90;44.60;;;;;;5070885;28;20017;-59
2022/05/05 08:05:31;;;;;;;8.45;7.60;;;20.90;44.70;;;;;;5072117;28;20016;-59
2022/05/05 08:07:58;;;;;;;12.02;8.00;;;20.90;44.40;;;;;;5070886;28;20081;-58
2022/05/05 08:10:28;;;;;;;9.48;7.93;;;20.90;44.60;;;;;;5072498;28;20374;-59
2022/05/05 08:12:54;;;;;;;8.68;7.78;;;20.90;44.70;;;;;;5072611;28;20506;-59
2022/05/05 08:15:20;;;;;;;22.02;9.73;;;20.90;44.50;;;;;;5071064;28;20016;-59
2022/05/05 08:17:47;;;;;;;12.95;9.57;;;20.90;45.20;;;;;;5070564;28;20031;-59
2022/05/05 08:20:14;;;;;;;11.10;7.65;;;20.80;45.40;;;;;;5071251;28;20049;-59
2022/05/05 08:22:40;;;;;;;9.07;8.05;;;20.80;45.10;;;;;;5069439;28;20037;-58
2022/05/05 08:30:35;;;;;;;9.07;8.18;;;21.00;44.70;;;;;;5071055;28;20099;-58
2022/05/05 08:33:00;;;;;;;10.23;7.60;;;20.90;44.60;;;;;;5071200;28;20382;-59
2022/05/05 08:35:27;;;;;;;14.32;8.35;;;20.90;44.60;;;;;;5072730;28;20025;-59
2022/05/05 08:37:53;;;;;;;10.27;8.05;;;20.90;45.00;;;;;;5072575;28;20012;-57
2022/05/05 08:40:22;;;;;;;12.13;8.90;;;20.90;44.80;;;;;;5070668;28;20405;-56
2022/05/05 08:42:48;;;;;;;10.57;8.43;;;21.00;45.10;;;;;;5071448;28;20032;-57
2022/05/05 08:45:13;;;;;;;9.80;8.23;;;21.00;45.10;;;;;;5072636;28;20016;-58
2022/05/05 08:47:40;;;;;;;8.45;7.47;;;21.00;45.10;;;;;;5072300;28;20078;-59
2022/05/05 08:50:08;;;;;;;8.93;8.02;;;21.00;44.90;;;;;;5072360;28;20035;-59
2022/05/05 08:52:45;;;;;;;9.55;8.55;;;21.00;45.20;;;;;;5071295;28;20021;-58
2022/05/05 08:55:17;;;;;;;9.98;8.23;;;21.00;44.90;;;;;;5071587;28;20090;-59
2022/05/05 08:57:43;;;;;;;8.82;8.02;;;21.10;44.70;;;;;;5072207;28;20074;-60
2022/05/05 09:00:13;;;;;;;10.68;7.78;;;21.10;44.80;;;;;;5072556;28;20021;-58
2022/05/05 09:02:40;;;;;;;8.73;7.38;;;21.10;44.60;;;;;;5054584;28;20017;-57
2022/05/05 09:05:06;;;;;;;8.35;7.60;;;21.10;44.40;;;;;;5072711;28;20070;-59
2022/05/05 09:07:49;;;;;;;9.93;7.80;;;21.20;44.50;;;;;;5074133;28;20016;-59
2022/05/05 09:10:19;;;;;;;20.08;8.52;;;21.20;44.40;;;;;;5075317;28;20387;-58
2022/05/05 09:12:57;;;;;;;22.75;8.85;;;21.30;45.30;;;;;;5075693;28;20100;-58
2022/05/05 09:15:33;;;;;;;27.90;9.13;;;21.50;46.60;;;;;;5076222;28;20100;-58
2022/05/05 09:18:16;;;;;;;17.25;9.73;;;21.80;47.20;;;;;;5075532;28;20054;-56
2022/05/05 09:20:42;;;;;;;30.67;9.30;;;22.00;47.20;;;;;;5075277;28;20095;-58
2022/05/05 09:23:08;;;;;;;22.65;9.13;;;22.20;47.40;;;;;;5075867;28;20052;-58
2022/05/05 09:25:47;;;;;;;18.30;9.18;;;22.40;47.60;;;;;;5073734;28;20023;-57
2022/05/05 09:28:24;;;;;;;25.55;9.25;;;22.50;47.70;;;;;;5074528;28;20056;-56
2022/05/05 09:30:51;;;;;;;18.17;8.80;;;22.60;48.00;;;;;;5074215;28;20036;-57
2022/05/05 09:33:41;;;;;;;22.90;9.00;;;22.70;48.10;;;;;;5074046;28;20013;-55
2022/05/05 09:36:12;;;;;;;30.23;9.25;;;22.90;48.20;;;;;;5073316;28;20475;-58
2022/05/05 09:39:12;;;;;;;18.45;9.00;;;22.90;48.50;;;;;;5073427;28;20024;-56
2022/05/05 09:41:44;;;;;;;32.90;8.90;;;23.00;48.50;;;;;;5052125;28;20550;-58
2022/05/05 09:44:13;;;;;;;47.05;10.02;;;23.10;49.00;;;;;;5051921;28;20039;-58
2022/05/05 09:46:40;;;;;;;50.53;10.52;;;23.20;49.00;;;;;;5051672;28;20021;-57
2022/05/05 09:49:09;;;;;;;47.83;10.38;;;23.30;49.30;;;;;;5035717;28;20121;-57
2022/05/05 09:51:45;;;;;;;47.15;9.93;;;23.30;49.60;;;;;;5051505;28;20044;-57
2022/05/05 09:59:50;;;;;;;56.58;13.80;;;23.50;50.20;;;;;;5052924;28;20059;-57
2022/05/05 10:04:00;;;;;;;50.58;13.57;;;23.40;49.90;;;;;;5052057;28;20120;-58
2022/05/05 10:05:17;;;;;;;63.15;13.20;;;23.30;49.80;;;;;;5038258;28;20044;-57
2022/05/05 10:07:44;;;;;;;46.28;12.80;;;23.20;49.90;;;;;;5052363;28;20029;-58
2022/05/05 10:10:14;;;;;;;45.15;12.88;;;23.10;49.80;;;;;;5052060;28;20068;-58
2022/05/05 10:12:39;;;;;;;52.60;13.60;;;23.00;50.10;;;;;;5051974;28;20021;-57
2022/05/05 10:15:06;;;;;;;41.83;12.93;;;22.90;50.20;;;;;;5051953;28;20108;-58
2022/05/05 10:17:34;;;;;;;42.05;12.93;;;22.80;50.50;;;;;;5057897;28;20166;-58
2022/05/05 10:20:00;;;;;;;44.63;13.10;;;22.70;50.40;;;;;;5072664;28;20103;-58
2022/05/05 10:22:54;;;;;;;43.35;12.15;;;22.60;50.50;;;;;;5074480;28;20162;-58
2022/05/05 10:25:25;;;;;;;49.55;12.75;;;22.40;50.70;;;;;;5074233;28;20444;-58
2022/05/05 10:27:51;;;;;;;50.00;13.05;;;22.30;51.10;;;;;;5074141;28;20009;-58
2022/05/05 10:30:36;;;;;;;48.95;13.55;;;22.20;51.10;;;;;;5073918;28;20027;-58
2022/05/05 10:33:08;;;;;;;51.58;12.95;;;22.10;51.30;;;;;;5073789;28;20479;-58
2022/05/05 10:35:50;;;;;;;41.65;12.52;;;22.00;51.40;;;;;;5072790;28;20041;-58
2022/05/05 10:38:41;;;;;;;46.83;13.07;;;22.00;51.20;;;;;;5072566;28;20021;-58
2022/05/05 10:41:33;;;;;;;31.67;12.18;;;21.90;51.40;;;;;;5074047;28;20094;-58
2022/05/05 10:44:28;;;;;;;41.20;13.02;;;22.00;51.30;;;;;;5074050;28;20020;-57
2022/05/05 10:46:55;;;;;;;31.40;11.73;;;21.90;51.30;;;;;;5068269;28;20035;-58
2022/05/05 10:49:37;;;;;;;40.58;13.65;;;21.80;51.40;;;;;;5073332;28;20032;-58
2022/05/05 10:52:11;;;;;;;42.00;12.02;;;21.80;51.30;;;;;;5073872;28;20013;-57
2022/05/05 10:54:48;;;;;;;26.88;11.32;;;21.80;51.40;;;;;;5073981;28;20024;-58
2022/05/05 10:57:26;;;;;;;31.33;11.60;;;21.80;51.20;;;;;;5055490;28;20017;-58
2022/05/05 11:00:18;;;;;;;38.40;12.20;;;21.80;51.30;;;;;;5073548;28;20044;-58
2022/05/05 11:03:02;;;;;;;25.75;11.35;;;21.80;51.10;;;;;;5073331;28;20471;-57
2022/05/05 11:05:38;;;;;;;23.45;11.25;;;21.60;51.40;;;;;;5073278;28;20031;-58
2022/05/05 11:08:13;;;;;;;28.52;11.88;;;21.50;51.30;;;;;;5073182;28;20028;-57
2022/05/05 11:13:43;;;;;;;30.77;12.40;;;21.50;51.40;;;;;;5072398;28;20086;-57
2022/05/05 11:22:11;;;;;;;26.40;12.52;;;21.40;51.50;;;;;;5071828;28;20576;-57
2022/05/05 11:24:38;;;;;;;26.38;12.05;;;21.50;51.50;;;;;;5072467;28;20020;-56
2022/05/05 11:27:04;;;;;;;32.85;11.77;;;21.40;51.40;;;;;;5072447;28;20042;-57
2022/05/05 11:29:31;;;;;;;32.28;12.57;;;21.50;51.30;;;;;;5071882;28;20013;-57
2022/05/05 11:31:58;;;;;;;26.33;11.80;;;21.50;51.10;;;;;;5086839;28;20127;-54
2022/05/05 11:34:36;;;;;;;27.17;12.02;;;21.50;51.00;;;;;;5071984;28;20064;-56
2022/05/05 11:37:02;;;;;;;28.33;12.50;;;21.60;50.90;;;;;;5072027;28;20048;-57
2022/05/05 11:39:29;;;;;;;26.98;11.70;;;21.50;50.90;;;;;;5070803;28;20095;-56
2022/05/05 11:42:02;;;;;;;26.90;12.82;;;21.50;50.80;;;;;;5070580;28;20019;-55
2022/05/05 11:44:29;;;;;;;27.65;11.95;;;21.70;50.40;;;;;;5071807;28;20028;-56
2022/05/05 11:46:59;;;;;;;29.10;11.30;;;21.70;50.40;;;;;;5071887;28;20098;-55
2022/05/05 11:49:32;;;;;;;29.92;12.32;;;21.70;50.30;;;;;;5070925;28;20073;-57
2022/05/05 11:52:01;;;;;;;22.63;11.50;;;21.90;50.00;;;;;;5071083;28;20036;-55
2022/05/05 11:54:28;;;;;;;23.90;11.93;;;21.80;50.00;;;;;;5071883;28;20044;-56
2022/05/05 11:56:54;;;;;;;18.92;11.68;;;21.80;49.90;;;;;;5071271;28;20024;-54
2022/05/05 12:02:08;;;;;;;34.70;12.50;;;21.90;49.70;;;;;;5073199;28;20048;-56
2022/05/05 12:04:37;;;;;;;35.50;13.50;;;21.90;49.50;;;;;;5072599;28;20017;-54
2022/05/05 12:07:03;;;;;;;29.88;12.70;;;21.90;49.60;;;;;;5071562;28;20025;-55
2022/05/05 12:09:36;;;;;;;23.00;11.68;;;21.80;49.70;;;;;;5073038;28;20013;-57
2022/05/05 12:12:12;;;;;;;19.05;11.32;;;21.90;49.70;;;;;;5072171;28;20025;-55
2022/05/05 12:14:42;;;;;;;21.45;12.40;;;21.90;49.50;;;;;;5070777;28;20040;-55
2022/05/05 12:17:12;;;;;;;26.73;12.25;;;21.90;49.30;;;;;;5071673;28;20044;-55
2022/05/05 12:19:48;;;;;;;21.40;11.43;;;21.90;49.30;;;;;;5053961;28;20015;-54
2022/05/05 12:22:21;;;;;;;19.50;11.23;;;21.90;49.20;;;;;;5071557;28;20037;-53
2022/05/05 12:24:47;;;;;;;20.45;11.50;;;21.90;49.30;;;;;;5054178;28;20005;-53
2022/05/05 12:27:14;;;;;;;20.25;10.40;;;21.90;49.30;;;;;;5070840;28;20043;-52
2022/05/05 12:29:41;;;;;;;22.83;10.80;;;21.90;49.20;;;;;;5070285;28;20454;-53
2022/05/05 12:32:11;;;;;;;19.92;10.68;;;21.80;49.40;;;;;;5087025;28;20040;-52
2022/05/05 12:34:37;;;;;;;20.73;10.53;;;21.70;49.60;;;;;;5071820;28;20015;-54
2022/05/05 12:37:09;;;;;;;21.17;10.98;;;21.70;49.80;;;;;;5072136;28;20250;-50
2022/05/05 12:39:34;;;;;;;18.52;11.05;;;21.70;49.70;;;;;;5072215;28;20017;-48
2022/05/05 12:42:03;;;;;;;25.25;10.02;;;21.70;50.00;;;;;;5055878;28;20021;-50
2022/05/05 12:44:35;;;;;;;16.92;10.00;;;21.60;50.00;;;;;;5076599;28;20048;-51
2022/05/05 12:47:06;;;;;;;17.98;10.10;;;21.60;50.10;;;;;;5074985;28;20013;-50
2022/05/05 12:49:39;;;;;;;20.50;10.40;;;21.60;50.00;;;;;;5076280;28;20039;-51
2022/05/05 12:52:05;;;;;;;16.27;10.43;;;21.70;50.00;;;;;;5076015;28;20024;-50
2022/05/05 13:00:01;;;;;;;18.98;10.02;;;21.70;49.60;;;;;;5074470;28;20078;-49
2022/05/05 13:02:26;;;;;;;18.33;9.65;;;21.70;49.80;;;;;;5075519;28;20031;-53
2022/05/05 13:04:52;;;;;;;20.80;9.75;;;21.70;49.90;;;;;;5074074;28;20020;-54
2022/05/05 13:07:19;;;;;;;25.77;10.85;;;21.70;49.90;;;;;;5074852;28;20017;-54
2022/05/05 13:09:45;;;;;;;18.92;10.18;;;21.70;49.60;;;;;;5075389;28;20134;-53
2022/05/05 13:12:11;;;;;;;18.38;10.10;;;21.70;49.80;;;;;;5057630;28;20029;-51
2022/05/05 13:14:37;;;;;;;15.32;9.38;;;21.80;49.50;;;;;;5073373;28;20047;-53
2022/05/05 13:17:03;;;;;;;15.57;9.40;;;21.80;49.30;;;;;;5075445;28;20017;-52
2022/05/05 13:19:29;;;;;;;15.20;10.00;;;21.70;49.70;;;;;;5076119;28;20503;-53
2022/05/05 13:21:56;;;;;;;16.25;10.02;;;21.70;49.80;;;;;;5074694;28;20507;-49
2022/05/05 13:24:21;;;;;;;19.90;9.90;;;21.60;50.00;;;;;;5076455;28;20069;-53
2022/05/05 13:26:48;;;;;;;22.15;10.10;;;21.50;50.00;;;;;;5076834;28;20486;-54
2022/05/05 13:29:14;;;;;;;15.60;9.10;;;21.50;49.90;;;;;;5076922;28;20103;-52
2022/05/05 13:31:40;;;;;;;14.65;9.32;;;21.60;49.70;;;;;;5075935;28;20103;-51
2022/05/05 13:34:05;;;;;;;16.90;10.05;;;21.70;49.50;;;;;;5076447;28;20396;-53
2022/05/05 13:36:31;;;;;;;16.30;9.70;;;21.80;49.40;;;;;;5074529;28;20032;-51
2022/05/05 13:38:57;;;;;;;24.35;10.30;;;21.60;49.70;;;;;;5074994;28;20031;-53